createdAt,value
2022-10-23T17:24:13.399Z,2.47
2022-10-23T17:26:41.645Z,2.80
2022-10-23T17:29:10.570Z,3.17
2022-10-23T17:31:40.193Z,3.30
2022-10-23T17:34:10.571Z,3.00
2022-10-23T17:36:42.841Z,2.50
2022-10-23T17:39:12.382Z,3.22
2022-10-23T17:41:40.437Z,2.80
2022-10-23T17:44:08.460Z,2.75
2022-10-23T17:46:36.195Z,2.92
2022-10-23T17:49:04.730Z,3.33
2022-10-23T17:51:34.187Z,2.70
2022-10-23T17:54:04.302Z,2.53
2022-10-23T17:56:34.002Z,2.60
2022-10-23T17:59:05.558Z,2.72
2022-10-23T18:01:33.654Z,2.95
2022-10-23T18:04:03.855Z,2.88
2022-10-23T18:06:37.559Z,3.17
2022-10-23T18:09:06.349Z,3.65
2022-10-23T18:11:43.837Z,3.33
2022-10-23T18:14:15.509Z,4.63
2022-10-23T18:16:43.524Z,4.05
2022-10-23T18:19:11.423Z,3.97
2022-10-23T18:21:40.315Z,4.05
2022-10-23T18:24:08.468Z,4.57
2022-10-23T18:26:39.327Z,4.20
2022-10-23T18:29:08.771Z,4.23
2022-10-23T18:31:37.570Z,3.97
2022-10-23T18:34:09.447Z,3.92
2022-10-23T18:36:39.462Z,4.60
2022-10-23T18:39:09.472Z,4.70
2022-10-23T18:41:39.626Z,4.38
2022-10-23T18:44:08.074Z,4.13
2022-10-23T18:46:36.205Z,4.30
2022-10-23T18:49:04.739Z,4.10
2022-10-23T18:51:34.542Z,4.20
2022-10-23T18:54:05.014Z,4.30
2022-10-23T18:56:34.262Z,3.92
2022-10-23T18:59:03.744Z,4.07
2022-10-23T19:01:32.219Z,4.55
2022-10-23T19:04:01.662Z,4.25
2022-10-23T19:06:30.844Z,4.10
2022-10-23T19:08:59.013Z,4.40
2022-10-23T19:11:28.296Z,4.40
2022-10-23T19:13:56.145Z,4.60
